Latest Weather Observations for Gingin Airport

IDW60801

Issued at 9:05 pm WST Saturday 25 October 2014 (issued every 30 minutes, with the page automatically refreshed every 10 minutes)

About weather observations | Map of weather stations | Latest weather observations for WA | Other Formats
Station Details ID: 009178 Name: GINGIN AERO Lat: -31.46 Lon: 115.86 Height: 73.0 m
Data from the previous 72 hours. | See also: Recent months at Gingin Airport
Date/Time
WST
Temp
°C
App
Temp
°C
Dew
Point
Rel
Hum
%
Delta-T
°C
Wind Press
QNH
hPa
Press
MSL
hPa
Rain
since 9 am
mm
Dir
 
Spd
km/h
Gust
km/h
Spd
kts
Gust
kts
25/09:00pm 16.5 17.0 16.5 100 0.0 WSW 9 11 5 6 1020.3 1020.2 1.2
25/08:30pm 16.5 16.6 16.5 100 0.0 WSW 11 15 6 8 1020.2 1020.1 1.2
25/08:00pm 16.6 16.7 16.6 100 0.0 W 11 15 6 8 1019.9 1019.8 0.6
25/07:30pm 16.6 16.0 16.6 100 0.0 SW 15 20 8 11 1019.8 1019.7 0.6
25/07:00pm 17.0 17.7 17.0 100 0.0 W 9 13 5 7 1019.4 1019.3 0.2
25/06:30pm 17.0 17.3 17.0 100 0.0 W 11 17 6 9 1019.1 1019.0 0.0
25/06:00pm 18.0 15.9 16.3 90 1.0 W 22 33 12 18 1018.9 1018.8 0.0
25/05:30pm 19.3 17.0 14.6 74 2.7 W 20 28 11 15 1018.4 1018.2 0.0
25/05:00pm 19.7 16.4 13.9 69 3.3 W 24 32 13 17 1018.5 1018.4 0.0
25/04:30pm 20.5 17.3 13.0 62 4.3 W 22 30 12 16 1018.4 1018.2 0.0
25/04:00pm 20.3 15.9 12.8 62 4.2 WSW 28 33 15 18 1018.5 1018.4 0.0
25/03:30pm 20.7 16.5 12.4 59 4.7 W 26 37 14 20 1018.3 1018.1 0.0
25/03:00pm 21.6 17.8 12.5 56 5.2 W 24 32 13 17 1018.3 1018.1 0.0
25/02:30pm 21.2 17.9 12.9 59 4.7 W 22 33 12 18 1018.3 1018.1 0.0
25/02:00pm 21.5 18.7 13.2 59 4.8 W 20 32 11 17 1018.2 1018.0 0.0
25/01:30pm 21.3 17.7 13.0 59 4.7 W 24 32 13 17 1018.4 1018.2 0.0
25/01:00pm 22.0 18.6 12.5 54 5.4 W 22 33 12 18 1018.4 1018.2 0.0
25/12:30pm 21.3 17.0 12.2 56 5.1 WSW 26 35 14 19 1018.3 1018.1 0.0
25/12:00pm 21.5 17.4 12.6 57 5.1 W 26 35 14 19 1018.3 1018.1 0.0
25/11:30am 21.4 17.8 12.0 55 5.3 WSW 22 35 12 19 1018.3 1018.1 0.0
25/11:00am 21.4 17.3 11.4 53 5.6 W 24 35 13 19 1018.6 1018.5 0.0
25/10:30am 20.5 15.7 10.3 52 5.5 WSW 26 39 14 21 1018.6 1018.5 0.0
25/10:00am 21.1 17.0 11.4 54 5.4 WSW 24 32 13 17 1018.6 1018.5 0.0
25/09:30am 20.1 15.2 11.3 57 4.9 W 28 37 15 20 1018.6 1018.5 0.0
25/09:00am 20.0 15.8 12.3 61 4.3 WSW 26 35 14 19 1018.4 1018.2 0.0
25/08:30am 19.3 15.6 12.8 66 3.7 W 24 32 13 17 1018.1 1017.9 0.0
25/08:00am 19.3 17.0 14.1 72 3.0 W 19 28 10 15 1017.7 1017.5 0.0
25/07:30am 18.3 17.7 15.7 85 1.5 W 13 17 7 9 1017.4 1017.2 0.0
25/07:00am 15.8 16.6 15.8 100 0.0 WNW 6 9 3 5 1017.2 1017.0 0.0
25/06:30am 14.4 14.7 14.4 100 0.0 NNW 6 7 3 4 1016.8 1016.7 0.0
25/06:00am 13.6 13.4 13.6 100 0.0 NNW 7 11 4 6 1016.6 1016.5 0.0
25/05:30am 13.2 12.5 13.2 100 0.0 N 9 11 5 6 1016.4 1016.3 0.0
25/05:00am 13.1 12.9 13.1 100 0.0 NNW 6 6 3 3 1016.2 1016.1 0.0
25/04:30am 12.7 11.8 12.7 100 0.0 N 9 9 5 5 1015.9 1015.8 0.0
25/04:00am 12.0 11.3 12.0 100 0.0 N 7 9 4 5 1015.9 1015.8 0.0
25/03:30am 12.0 10.9 12.0 100 0.0 N 9 9 5 5 1015.6 1015.5 0.0
25/03:00am 11.7 10.9 11.7 100 0.0 N 7 9 4 5 1015.6 1015.5 0.0
25/02:30am 11.2 9.9 11.2 100 0.0 WNW 9 11 5 6 1015.4 1015.3 0.0
25/02:00am 10.7 9.8 10.7 100 0.0 SW 6 7 3 4 1015.7 1015.6 0.0
25/01:30am 10.2 10.3 10.2 100 0.0 CALM 0 0 0 0 1015.3 1015.2 0.0
25/01:00am 10.9 11.2 10.9 100 0.0 CALM 0 0 0 0 1015.5 1015.4 0.0
25/12:30am 10.3 10.4 10.3 100 0.0 CALM 0 0 0 0 1015.6 1015.5 0.0
25/12:00am 10.7 10.9 10.7 100 0.0 SW 0 0 0 0 1015.7 1015.6 0.0
 
Date/Time
WST
Temp
°C
App
Temp
°C
Dew
Point
Rel
Hum
%
Delta-T
°C
Wind Press
QNH
hPa
Press
MSL
hPa
Rain
since 9 am
mm
Dir
 
Spd
km/h
Gust
km/h
Spd
kts
Gust
kts
24/11:30pm 11.0 11.0 11.0 100 0.0 SW 2 6 1 3 1015.8 1015.7 0.0
24/11:00pm 11.5 10.8 11.5 100 0.0 SW 6 7 3 4 1016.0 1015.9 0.0
24/10:30pm 12.3 12.6 12.3 100 0.0 SW 2 6 1 3 1016.1 1016.0 0.0
24/10:00pm 13.2 13.7 12.7 97 0.3 SW 2 6 1 3 1016.2 1016.1 0.0
24/09:30pm 14.2 13.9 12.8 91 0.8 SW 6 7 3 4 1016.3 1016.2 0.0
24/09:00pm 15.0 14.8 13.0 88 1.1 WSW 6 7 3 4 1016.2 1016.1 0.0
24/08:30pm 15.7 14.9 13.0 84 1.5 WSW 9 11 5 6 1016.2 1016.1 0.0
24/08:00pm 16.7 15.9 13.0 79 2.1 SW 9 13 5 7 1015.9 1015.8 0.0
24/07:30pm 17.6 16.4 12.9 74 2.6 SSW 11 13 6 7 1015.6 1015.5 0.0
24/07:00pm 18.3 16.6 12.5 69 3.2 SSW 13 17 7 9 1015.5 1015.4 0.0
24/06:30pm 19.3 16.3 11.8 62 4.2 SW 19 24 10 13 1015.4 1015.3 0.0
24/06:00pm 20.6 17.1 11.0 54 5.3 SW 20 28 11 15 1015.2 1015.1 0.0
24/05:30pm 22.0 18.4 11.7 52 5.8 SW 22 28 12 15 1014.8 1014.7 0.0
24/05:00pm 22.9 19.6 11.6 49 6.4 WSW 20 30 11 16 1014.8 1014.7 0.0
24/04:30pm 23.4 19.4 11.8 48 6.6 WSW 24 30 13 16 1014.7 1014.6 0.0
24/04:00pm 23.9 20.0 12.2 48 6.7 WSW 24 32 13 17 1014.3 1014.2 0.0
24/03:30pm 24.9 21.5 12.5 46 7.2 WSW 22 28 12 15 1014.0 1013.9 0.0
24/03:00pm 25.6 21.7 12.1 43 7.8 W 24 28 13 15 1014.1 1014.0 0.0
24/02:30pm 25.7 22.6 12.2 43 7.8 SW 20 30 11 16 1014.1 1014.0 0.0
24/02:00pm 26.1 23.1 12.5 42 7.9 WSW 20 28 11 15 1014.2 1014.1 0.0
24/01:30pm 26.1 22.7 12.5 42 7.9 SW 22 33 12 18 1014.5 1014.4 0.0
24/01:00pm 25.5 23.3 9.3 36 8.9 N 11 17 6 9 1014.9 1014.8 0.0
24/12:30pm 25.8 24.6 10.4 38 8.6 E 7 11 4 6 1015.2 1015.1 0.0
24/12:00pm 24.8 23.2 10.3 40 8.0 NE 9 20 5 11 1015.6 1015.5 0.0
24/11:30am 24.0 22.2 9.6 40 7.9 NNW 9 17 5 9 1016.0 1015.9 0.0
24/11:00am 23.8 22.7 11.8 47 6.8 ESE 9 17 5 9 1016.6 1016.5 0.0
24/10:30am 23.2 22.0 11.6 48 6.5 NE 9 22 5 12 1016.9 1016.8 0.0
24/10:00am 22.8 21.6 12.7 53 5.8 ENE 11 17 6 9 1017.4 1017.2 0.0
24/09:30am 21.4 19.6 12.0 55 5.3 E 13 20 7 11 1017.8 1017.6 0.0
24/09:00am 20.7 18.1 11.9 57 4.9 E 17 24 9 13 1017.8 1017.6 0.0
24/08:30am 19.9 17.1 12.7 63 4.1 ENE 19 26 10 14 1017.5 1017.3 0.0
24/08:00am 18.6 16.5 12.4 67 3.5 E 15 20 8 11 1017.8 1017.6 0.0
24/07:30am 17.0 15.5 14.1 83 1.7 ESE 15 20 8 11 1017.6 1017.4 0.0
24/07:00am 14.7 14.1 14.7 100 0.0 ESE 11 15 6 8 1017.6 1017.4 0.0
24/06:30am 12.1 11.0 12.1 100 0.0 SE 9 9 5 5 1017.7 1017.5 0.0
24/06:00am 11.7 10.5 11.7 100 0.0 SE 9 11 5 6 1017.3 1017.1 0.0
24/05:30am 11.2 9.9 11.2 100 0.0 S 9 11 5 6 1017.5 1017.3 0.0
24/05:00am 10.3 9.3 10.3 100 0.0 SSE 6 7 3 4 1017.0 1016.9 0.0
24/04:30am 9.8 9.4 9.8 100 0.0 S 2 7 1 4 1017.2 1017.0 0.0
24/04:00am 9.3 9.2 9.3 100 0.0 CALM 0 0 0 0 1017.5 1017.3 0.0
24/03:30am 9.6 9.5 9.6 100 0.0 CALM 0 0 0 0 1017.5 1017.3 0.0
24/03:00am 9.3 9.2 9.3 100 0.0 CALM 0 0 0 0 1017.6 1017.4 0.0
24/02:30am 9.2 9.0 9.2 100 0.0 CALM 0 0 0 0 1017.9 1017.7 0.0
24/02:00am 8.9 8.7 8.9 100 0.0 CALM 0 0 0 0 1017.5 1017.3 0.0
24/01:30am 9.6 9.5 9.6 100 0.0 CALM 0 0 0 0 1017.7 1017.5 0.0
24/01:00am 10.2 10.3 10.2 100 0.0 CALM 0 0 0 0 1017.6 1017.4 0.0
24/12:30am 9.8 9.8 9.8 100 0.0 CALM 0 0 0 0 1017.8 1017.6 0.0
24/12:00am 10.4 10.6 10.4 100 0.0 CALM 0 0 0 0 1017.9 1017.7 0.0
 
Date/Time
WST
Temp
°C
App
Temp
°C
Dew
Point
Rel
Hum
%
Delta-T
°C
Wind Press
QNH
hPa
Press
MSL
hPa
Rain
since 9 am
mm
Dir
 
Spd
km/h
Gust
km/h
Spd
kts
Gust
kts
23/11:30pm 11.3 11.3 11.3 100 0.0 SSW 2 6 1 3 1017.9 1017.7 0.0
23/11:00pm 11.1 11.1 11.1 100 0.0 SSW 2 7 1 4 1018.1 1017.9 0.0
23/10:30pm 11.3 10.6 11.3 100 0.0 SSW 6 7 3 4 1018.1 1017.9 0.0
23/10:00pm 11.8 11.2 11.8 100 0.0 SSW 6 7 3 4 1018.3 1018.1 0.0
23/09:30pm 12.6 13.4 12.6 100 0.0 CALM 0 0 0 0 1018.5 1018.4 0.0
23/09:00pm 14.4 14.3 13.9 97 0.3 SSW 7 9 4 5 1018.4 1018.2 0.0
23/08:30pm 15.2 15.5 14.4 95 0.5 SSW 6 6 3 3 1018.4 1018.2 0.0
23/08:00pm 15.7 15.8 14.4 92 0.7 S 7 9 4 5 1018.3 1018.1 0.0
23/07:30pm 16.5 15.9 14.7 89 1.0 SSW 11 13 6 7 1018.1 1017.9 0.0
23/07:00pm 17.0 15.6 14.5 85 1.4 SSW 15 19 8 10 1017.7 1017.5 0.0
23/06:30pm 17.8 15.8 13.9 78 2.2 SSW 17 24 9 13 1017.4 1017.2 0.0
23/06:00pm 18.8 16.2 13.9 73 2.8 SW 20 28 11 15 1017.2 1017.0 0.0
23/05:30pm 19.3 16.7 13.9 71 3.1 SW 20 30 11 16 1016.8 1016.7 0.0
23/05:00pm 20.5 17.6 13.0 62 4.3 SW 20 26 11 14 1016.5 1016.4 0.0
23/04:30pm 20.9 17.8 12.1 57 4.9 SW 20 28 11 15 1016.4 1016.3 0.0
23/04:00pm 21.6 18.9 13.5 60 4.7 SW 20 28 11 15 1016.3 1016.2 0.0
23/03:30pm 21.9 18.2 11.6 52 5.8 WSW 22 32 12 17 1016.1 1016.0 0.0
23/03:00pm 21.3 17.5 12.4 57 5.0 WSW 24 32 13 17 1016.1 1016.0 0.0
23/02:30pm 21.0 17.4 13.2 61 4.5 SW 24 32 13 17 1016.1 1016.0 0.0
23/02:00pm 21.4 17.6 12.3 56 5.1 SW 24 35 13 19 1016.2 1016.1 0.0
23/01:30pm 21.5 17.8 12.6 57 5.1 SW 24 35 13 19 1016.3 1016.2 0.0
23/01:00pm 22.4 19.2 14.3 60 4.8 WSW 24 35 13 19 1016.2 1016.1 0.0
23/12:30pm 22.3 19.4 13.9 59 4.9 W 22 28 12 15 1016.3 1016.2 0.0
23/12:00pm 21.6 18.0 14.3 63 4.3 WSW 26 35 14 19 1016.3 1016.2 0.0
23/11:30am 20.1 16.1 14.0 68 3.5 W 28 35 15 19 1016.5 1016.4 0.0
23/11:00am 20.9 18.5 16.3 75 2.8 WSW 24 33 13 18 1016.5 1016.4 0.0
23/10:30am 20.4 17.5 15.2 72 3.1 WSW 24 35 13 19 1016.5 1016.4 0.0
23/10:00am 20.3 18.0 15.7 75 2.7 W 22 32 12 17 1016.4 1016.3 0.0
23/09:30am 19.9 18.8 17.7 87 1.4 W 20 32 11 17 1016.3 1016.2 0.0
23/09:00am 17.3 16.6 17.3 100 0.0 WSW 17 22 9 12 1016.2 1016.1 3.6
23/08:36am 17.6 14.2 16.8 95 0.5 WSW 30 43 16 23 1016.1 1016.0 2.8
23/08:30am 20.0 19.9 18.7 92 0.8 WNW 17 24 9 13 1016.0 1015.9 2.6
23/08:00am 17.7 16.8 17.7 100 0.0 WNW 19 26 10 14 1015.8 1015.7 2.6
23/07:30am 16.8 16.6 16.8 100 0.0 NW 13 17 7 9 1015.6 1015.5 2.6
23/07:00am 15.2 14.8 15.2 100 0.0 NNW 11 17 6 9 1015.4 1015.3 2.6
23/06:30am 13.9 13.4 13.9 100 0.0 NNW 9 13 5 7 1015.2 1015.1 2.6
23/06:00am 13.0 12.2 13.0 100 0.0 N 9 13 5 7 1014.8 1014.7 2.6
23/05:30am 12.7 11.5 12.7 100 0.0 N 11 13 6 7 1014.3 1014.2 2.6
23/05:00am 12.8 11.6 12.8 100 0.0 N 11 13 6 7 1014.0 1013.9 2.6
23/04:30am 13.2 12.1 13.2 100 0.0 N 11 13 6 7 1013.8 1013.7 2.6
23/04:00am 13.6 13.0 13.6 100 0.0 N 9 11 5 6 1014.1 1014.0 2.6
23/03:30am 13.7 13.5 13.7 100 0.0 N 7 9 4 5 1014.3 1014.2 2.6
23/03:00am 14.2 14.2 14.2 100 0.0 NNW 7 11 4 6 1014.5 1014.4 2.6
23/02:30am 14.6 14.4 14.6 100 0.0 NW 9 13 5 7 1014.5 1014.4 2.6
23/02:00am 14.2 13.5 14.2 100 0.0 NNW 11 15 6 8 1014.5 1014.4 2.6
23/01:30am 14.0 13.2 14.0 100 0.0 N 11 15 6 8 1014.4 1014.3 2.4
23/01:00am 13.7 13.5 13.7 100 0.0 N 7 9 4 5 1014.4 1014.3 2.4
23/12:30am 14.1 14.1 14.1 100 0.0 N 7 9 4 5 1014.5 1014.4 2.4
23/12:00am 14.6 14.8 14.6 100 0.0 N 7 9 4 5 1015.1 1015.0 2.4
 
Date/Time
WST
Temp
°C
App
Temp
°C
Dew
Point
Rel
Hum
%
Delta-T
°C
Wind Press
QNH
hPa
Press
MSL
hPa
Rain
since 9 am
mm
Dir
 
Spd
km/h
Gust
km/h
Spd
kts
Gust
kts
22/11:30pm 14.8 14.6 14.8 100 0.0 N 9 15 5 8 1015.3 1015.2 2.4
22/11:00pm 14.4 13.7 14.4 100 0.0 N 11 17 6 9 1015.3 1015.2 2.4
22/10:30pm 14.8 13.9 14.8 100 0.0 NNE 13 17 7 9 1014.8 1014.7 2.4
22/10:00pm 14.9 14.4 14.9 100 0.0 NW 11 15 6 8 1015.5 1015.4 2.2
22/09:30pm 16.0 15.2 16.0 100 0.0 NW 15 20 8 11 1015.9 1015.8 0.0

Other Formats:

Comma delimited format used in spreadsheet applications
http://www.bom.gov.au/fwo/IDW60801/IDW60801.95612.axf

JavaScript Object Notation format (JSON) in row-major order
http://www.bom.gov.au/fwo/IDW60801/IDW60801.95612.json